Grindstone, Texas
Current Conditions -  °F | °C
As of 9:53 AM on Monday 22 Dec 2014 (Local Time) from KCRS Reporting Station
Clear Clear  
Wind Chill: 62°   Ceiling: Unl
Heat Index: 62°   Visibility: 10mi
Dew Point: 53°   Wind: 15mph
Humidity: 72%   Direction: 210°SSW
Pressure: 29.65"   Gusts: 24mph
Location:  31.8162°N, 96.1239°W
Report Text: KCRS 221553Z AUTO 21013G21KT 10SM CLR 17/12 A2965 RMK AO2 SLP039 T01670117
Loading
Personal Weather Stations






























Interactive Weather Map New forecast layout! Learn more

10-Day Weather Forecast

Advertisements
Track Severe Weather on mobile